sensor_id;sensor_type;location;lat;lon;timestamp;P1;durP1;ratioP1;P2;durP2;ratioP2
15982;SDS011;14442;50.196;8.096;2023-06-26T00:00:07;4.13;;;3.83;;
15982;SDS011;14442;50.196;8.096;2023-06-26T00:02:36;4.13;;;3.73;;
15982;SDS011;14442;50.196;8.096;2023-06-26T00:05:02;3.97;;;3.60;;
15982;SDS011;14442;50.196;8.096;2023-06-26T00:07:30;6.03;;;4.30;;
15982;SDS011;14442;50.196;8.096;2023-06-26T00:09:59;4.00;;;3.70;;
15982;SDS011;14442;50.196;8.096;2023-06-26T00:12:25;4.00;;;3.67;;
15982;SDS011;14442;50.196;8.096;2023-06-26T00:14:52;4.80;;;4.30;;
15982;SDS011;14442;50.196;8.096;2023-06-26T00:17:20;3.67;;;3.37;;
15982;SDS011;14442;50.196;8.096;2023-06-26T00:19:47;4.47;;;4.07;;
15982;SDS011;14442;50.196;8.096;2023-06-26T00:22:15;3.80;;;3.60;;
15982;SDS011;14442;50.196;8.096;2023-06-26T00:24:41;3.53;;;3.23;;
15982;SDS011;14442;50.196;8.096;2023-06-26T00:27:09;4.13;;;3.83;;
15982;SDS011;14442;50.196;8.096;2023-06-26T00:29:36;3.70;;;3.47;;
15982;SDS011;14442;50.196;8.096;2023-06-26T00:32:03;3.70;;;3.43;;
15982;SDS011;14442;50.196;8.096;2023-06-26T00:34:32;4.43;;;3.73;;
15982;SDS011;14442;50.196;8.096;2023-06-26T00:36:58;4.33;;;4.03;;
15982;SDS011;14442;50.196;8.096;2023-06-26T00:39:25;4.17;;;3.87;;
15982;SDS011;14442;50.196;8.096;2023-06-26T00:41:52;5.13;;;4.03;;
15982;SDS011;14442;50.196;8.096;2023-06-26T00:44:19;5.10;;;4.40;;
15982;SDS011;14442;50.196;8.096;2023-06-26T00:46:46;3.57;;;3.27;;
15982;SDS011;14442;50.196;8.096;2023-06-26T00:49:13;5.43;;;3.77;;
15982;SDS011;14442;50.196;8.096;2023-06-26T00:51:42;4.37;;;3.97;;
15982;SDS011;14442;50.196;8.096;2023-06-26T00:54:09;4.70;;;4.27;;
15982;SDS011;14442;50.196;8.096;2023-06-26T00:56:36;5.30;;;3.63;;
15982;SDS011;14442;50.196;8.096;2023-06-26T00:59:03;4.63;;;3.73;;
15982;SDS011;14442;50.196;8.096;2023-06-26T01:01:30;4.50;;;4.10;;
15982;SDS011;14442;50.196;8.096;2023-06-26T01:03:57;4.27;;;3.97;;
15982;SDS011;14442;50.196;8.096;2023-06-26T01:06:24;4.70;;;4.10;;
15982;SDS011;14442;50.196;8.096;2023-06-26T01:08:57;4.73;;;3.70;;
15982;SDS011;14442;50.196;8.096;2023-06-26T01:11:25;4.00;;;3.60;;
15982;SDS011;14442;50.196;8.096;2023-06-26T01:13:51;5.67;;;4.00;;
15982;SDS011;14442;50.196;8.096;2023-06-26T01:16:20;3.87;;;3.57;;
15982;SDS011;14442;50.196;8.096;2023-06-26T01:18:49;4.03;;;3.40;;
15982;SDS011;14442;50.196;8.096;2023-06-26T01:21:16;3.77;;;3.47;;
15982;SDS011;14442;50.196;8.096;2023-06-26T01:23:48;4.23;;;3.70;;
15982;SDS011;14442;50.196;8.096;2023-06-26T01:26:27;4.07;;;3.77;;
15982;SDS011;14442;50.196;8.096;2023-06-26T01:28:56;3.70;;;3.50;;
15982;SDS011;14442;50.196;8.096;2023-06-26T01:31:24;4.30;;;3.90;;
15982;SDS011;14442;50.196;8.096;2023-06-26T01:33:53;4.50;;;4.10;;
15982;SDS011;14442;50.196;8.096;2023-06-26T01:36:19;3.87;;;3.57;;
15982;SDS011;14442;50.196;8.096;2023-06-26T01:38:47;4.33;;;3.77;;
15982;SDS011;14442;50.196;8.096;2023-06-26T01:41:13;4.03;;;3.73;;
15982;SDS011;14442;50.196;8.096;2023-06-26T01:43:43;4.10;;;3.77;;
15982;SDS011;14442;50.196;8.096;2023-06-26T01:46:23;5.17;;;4.30;;
15982;SDS011;14442;50.196;8.096;2023-06-26T01:48:54;3.93;;;3.53;;
15982;SDS011;14442;50.196;8.096;2023-06-26T01:51:28;4.30;;;4.00;;
15982;SDS011;14442;50.196;8.096;2023-06-26T01:53:58;4.20;;;3.87;;
15982;SDS011;14442;50.196;8.096;2023-06-26T01:56:26;5.87;;;3.80;;
15982;SDS011;14442;50.196;8.096;2023-06-26T01:58:55;4.00;;;3.70;;
15982;SDS011;14442;50.196;8.096;2023-06-26T02:01:23;4.90;;;3.73;;
15982;SDS011;14442;50.196;8.096;2023-06-26T02:03:50;5.03;;;3.57;;
15982;SDS011;14442;50.196;8.096;2023-06-26T02:06:17;4.27;;;3.47;;
15982;SDS011;14442;50.196;8.096;2023-06-26T02:08:43;3.60;;;3.30;;
15982;SDS011;14442;50.196;8.096;2023-06-26T02:11:10;4.03;;;3.73;;
15982;SDS011;14442;50.196;8.096;2023-06-26T02:13:37;3.80;;;3.50;;
15982;SDS011;14442;50.196;8.096;2023-06-26T02:16:05;4.30;;;3.33;;
15982;SDS011;14442;50.196;8.096;2023-06-26T02:18:32;3.93;;;3.67;;
15982;SDS011;14442;50.196;8.096;2023-06-26T02:20:58;4.00;;;3.70;;
15982;SDS011;14442;50.196;8.096;2023-06-26T02:23:27;4.10;;;3.70;;
15982;SDS011;14442;50.196;8.096;2023-06-26T02:25:53;3.70;;;3.40;;
15982;SDS011;14442;50.196;8.096;2023-06-26T02:28:20;4.17;;;3.73;;
15982;SDS011;14442;50.196;8.096;2023-06-26T02:30:47;4.43;;;4.13;;
15982;SDS011;14442;50.196;8.096;2023-06-26T02:33:15;3.90;;;3.50;;
15982;SDS011;14442;50.196;8.096;2023-06-26T02:35:41;4.37;;;4.07;;
15982;SDS011;14442;50.196;8.096;2023-06-26T02:38:08;4.20;;;3.90;;
15982;SDS011;14442;50.196;8.096;2023-06-26T02:40:35;4.40;;;4.00;;
15982;SDS011;14442;50.196;8.096;2023-06-26T02:43:02;4.07;;;3.70;;
15982;SDS011;14442;50.196;8.096;2023-06-26T02:45:29;4.37;;;3.80;;
15982;SDS011;14442;50.196;8.096;2023-06-26T02:47:56;4.27;;;3.97;;
15982;SDS011;14442;50.196;8.096;2023-06-26T02:50:24;4.43;;;4.07;;
15982;SDS011;14442;50.196;8.096;2023-06-26T02:52:50;4.30;;;3.90;;
15982;SDS011;14442;50.196;8.096;2023-06-26T02:55:18;4.97;;;4.00;;
15982;SDS011;14442;50.196;8.096;2023-06-26T02:57:45;5.93;;;3.80;;
15982;SDS011;14442;50.196;8.096;2023-06-26T03:00:12;4.30;;;4.00;;
15982;SDS011;14442;50.196;8.096;2023-06-26T03:02:40;4.90;;;4.00;;
15982;SDS011;14442;50.196;8.096;2023-06-26T03:05:07;6.83;;;4.10;;
15982;SDS011;14442;50.196;8.096;2023-06-26T03:07:35;4.40;;;4.00;;
15982;SDS011;14442;50.196;8.096;2023-06-26T03:10:02;4.40;;;4.00;;
15982;SDS011;14442;50.196;8.096;2023-06-26T03:12:30;3.70;;;3.47;;
15982;SDS011;14442;50.196;8.096;2023-06-26T03:14:57;5.03;;;3.83;;
15982;SDS011;14442;50.196;8.096;2023-06-26T03:17:23;4.10;;;3.73;;
15982;SDS011;14442;50.196;8.096;2023-06-26T03:19:50;4.30;;;4.00;;
15982;SDS011;14442;50.196;8.096;2023-06-26T03:22:17;4.50;;;4.07;;
15982;SDS011;14442;50.196;8.096;2023-06-26T03:24:45;4.00;;;3.37;;
15982;SDS011;14442;50.196;8.096;2023-06-26T03:27:12;4.23;;;3.83;;
15982;SDS011;14442;50.196;8.096;2023-06-26T03:29:38;7.77;;;4.20;;
15982;SDS011;14442;50.196;8.096;2023-06-26T03:32:05;7.70;;;4.30;;
15982;SDS011;14442;50.196;8.096;2023-06-26T03:34:33;4.40;;;4.00;;
15982;SDS011;14442;50.196;8.096;2023-06-26T03:36:59;3.90;;;3.70;;
15982;SDS011;14442;50.196;8.096;2023-06-26T03:39:27;6.77;;;4.30;;
15982;SDS011;14442;50.196;8.096;2023-06-26T03:41:55;9.07;;;4.03;;
15982;SDS011;14442;50.196;8.096;2023-06-26T03:44:25;4.60;;;4.20;;
15982;SDS011;14442;50.196;8.096;2023-06-26T03:46:52;6.47;;;3.67;;
15982;SDS011;14442;50.196;8.096;2023-06-26T03:49:19;4.77;;;4.33;;
15982;SDS011;14442;50.196;8.096;2023-06-26T03:51:45;4.27;;;3.80;;
15982;SDS011;14442;50.196;8.096;2023-06-26T03:54:12;4.50;;;4.13;;
15982;SDS011;14442;50.196;8.096;2023-06-26T03:56:39;4.03;;;3.73;;
15982;SDS011;14442;50.196;8.096;2023-06-26T03:59:07;4.10;;;3.70;;
15982;SDS011;14442;50.196;8.096;2023-06-26T04:01:35;4.27;;;3.87;;
15982;SDS011;14442;50.196;8.096;2023-06-26T04:04:02;5.20;;;4.03;;
15982;SDS011;14442;50.196;8.096;2023-06-26T04:06:29;6.70;;;4.00;;
15982;SDS011;14442;50.196;8.096;2023-06-26T04:08:56;4.33;;;3.63;;
15982;SDS011;14442;50.196;8.096;2023-06-26T04:11:23;6.93;;;3.87;;
15982;SDS011;14442;50.196;8.096;2023-06-26T04:13:51;5.27;;;3.97;;
15982;SDS011;14442;50.196;8.096;2023-06-26T04:16:20;6.70;;;3.93;;
15982;SDS011;14442;50.196;8.096;2023-06-26T04:18:50;4.20;;;3.80;;
15982;SDS011;14442;50.196;8.096;2023-06-26T04:21:16;5.50;;;4.20;;
15982;SDS011;14442;50.196;8.096;2023-06-26T04:23:43;4.80;;;4.07;;
15982;SDS011;14442;50.196;8.096;2023-06-26T04:26:10;5.43;;;4.00;;
15982;SDS011;14442;50.196;8.096;2023-06-26T04:28:38;5.33;;;4.07;;
15982;SDS011;14442;50.196;8.096;2023-06-26T04:31:05;4.97;;;3.93;;
15982;SDS011;14442;50.196;8.096;2023-06-26T04:33:33;8.23;;;4.93;;
15982;SDS011;14442;50.196;8.096;2023-06-26T04:36:01;4.90;;;4.13;;
15982;SDS011;14442;50.196;8.096;2023-06-26T04:38:29;4.20;;;3.90;;
15982;SDS011;14442;50.196;8.096;2023-06-26T04:40:56;5.33;;;4.13;;
15982;SDS011;14442;50.196;8.096;2023-06-26T04:43:23;4.37;;;3.97;;
15982;SDS011;14442;50.196;8.096;2023-06-26T04:45:49;5.07;;;4.40;;
15982;SDS011;14442;50.196;8.096;2023-06-26T04:48:16;6.33;;;4.33;;
15982;SDS011;14442;50.196;8.096;2023-06-26T04:50:44;5.23;;;4.73;;
15982;SDS011;14442;50.196;8.096;2023-06-26T04:53:18;3.97;;;3.50;;
15982;SDS011;14442;50.196;8.096;2023-06-26T04:55:45;5.30;;;4.77;;
15982;SDS011;14442;50.196;8.096;2023-06-26T04:58:12;6.17;;;4.50;;
15982;SDS011;14442;50.196;8.096;2023-06-26T05:00:39;5.50;;;4.77;;
15982;SDS011;14442;50.196;8.096;2023-06-26T05:03:07;4.50;;;4.20;;
15982;SDS011;14442;50.196;8.096;2023-06-26T05:05:34;5.43;;;4.47;;
15982;SDS011;14442;50.196;8.096;2023-06-26T05:08:06;4.97;;;4.57;;
15982;SDS011;14442;50.196;8.096;2023-06-26T05:10:39;4.80;;;4.50;;
15982;SDS011;14442;50.196;8.096;2023-06-26T05:13:06;5.13;;;4.73;;
15982;SDS011;14442;50.196;8.096;2023-06-26T05:15:33;5.17;;;4.67;;
15982;SDS011;14442;50.196;8.096;2023-06-26T05:18:00;4.73;;;4.43;;
15982;SDS011;14442;50.196;8.096;2023-06-26T05:20:27;7.03;;;4.20;;
15982;SDS011;14442;50.196;8.096;2023-06-26T05:22:53;4.50;;;4.20;;
15982;SDS011;14442;50.196;8.096;2023-06-26T05:25:22;5.20;;;4.70;;
15982;SDS011;14442;50.196;8.096;2023-06-26T05:27:50;4.83;;;4.40;;
15982;SDS011;14442;50.196;8.096;2023-06-26T05:30:18;4.63;;;4.23;;
15982;SDS011;14442;50.196;8.096;2023-06-26T05:32:45;5.10;;;4.70;;
15982;SDS011;14442;50.196;8.096;2023-06-26T05:35:13;4.43;;;4.13;;
15982;SDS011;14442;50.196;8.096;2023-06-26T05:37:41;4.70;;;4.30;;
15982;SDS011;14442;50.196;8.096;2023-06-26T05:40:08;4.30;;;4.00;;
15982;SDS011;14442;50.196;8.096;2023-06-26T05:42:38;4.70;;;4.03;;
15982;SDS011;14442;50.196;8.096;2023-06-26T05:45:05;4.93;;;4.50;;
15982;SDS011;14442;50.196;8.096;2023-06-26T05:47:32;5.43;;;4.00;;
15982;SDS011;14442;50.196;8.096;2023-06-26T05:49:59;5.73;;;4.30;;
15982;SDS011;14442;50.196;8.096;2023-06-26T05:52:27;8.13;;;5.93;;
15982;SDS011;14442;50.196;8.096;2023-06-26T05:54:55;10.53;;;9.53;;
15982;SDS011;14442;50.196;8.096;2023-06-26T05:57:23;8.27;;;7.57;;
15982;SDS011;14442;50.196;8.096;2023-06-26T05:59:54;7.43;;;6.70;;
15982;SDS011;14442;50.196;8.096;2023-06-26T06:02:21;6.40;;;5.80;;
15982;SDS011;14442;50.196;8.096;2023-06-26T06:04:47;6.00;;;5.50;;
15982;SDS011;14442;50.196;8.096;2023-06-26T06:07:15;14.37;;;5.90;;
15982;SDS011;14442;50.196;8.096;2023-06-26T06:09:41;8.50;;;6.33;;
15982;SDS011;14442;50.196;8.096;2023-06-26T06:12:08;13.67;;;6.80;;
15982;SDS011;14442;50.196;8.096;2023-06-26T06:14:36;10.00;;;6.33;;
15982;SDS011;14442;50.196;8.096;2023-06-26T06:17:04;8.03;;;5.93;;
15982;SDS011;14442;50.196;8.096;2023-06-26T06:19:31;9.77;;;5.57;;
15982;SDS011;14442;50.196;8.096;2023-06-26T06:21:58;9.90;;;6.17;;
15982;SDS011;14442;50.196;8.096;2023-06-26T06:24:24;14.63;;;6.60;;
15982;SDS011;14442;50.196;8.096;2023-06-26T06:26:51;8.23;;;5.63;;
15982;SDS011;14442;50.196;8.096;2023-06-26T06:29:18;8.97;;;5.37;;
15982;SDS011;14442;50.196;8.096;2023-06-26T06:31:45;11.37;;;5.60;;
15982;SDS011;14442;50.196;8.096;2023-06-26T06:34:13;10.53;;;5.87;;
15982;SDS011;14442;50.196;8.096;2023-06-26T06:36:40;13.37;;;5.33;;
15982;SDS011;14442;50.196;8.096;2023-06-26T06:39:07;6.87;;;5.03;;
15982;SDS011;14442;50.196;8.096;2023-06-26T06:41:34;9.20;;;5.83;;
15982;SDS011;14442;50.196;8.096;2023-06-26T06:44:01;15.73;;;5.43;;
15982;SDS011;14442;50.196;8.096;2023-06-26T06:46:27;7.60;;;4.83;;
15982;SDS011;14442;50.196;8.096;2023-06-26T06:48:54;9.03;;;4.87;;
15982;SDS011;14442;50.196;8.096;2023-06-26T06:51:23;5.53;;;5.03;;
15982;SDS011;14442;50.196;8.096;2023-06-26T06:53:49;5.77;;;5.27;;
15982;SDS011;14442;50.196;8.096;2023-06-26T06:56:16;7.27;;;5.23;;
15982;SDS011;14442;50.196;8.096;2023-06-26T06:58:43;5.13;;;4.70;;
15982;SDS011;14442;50.196;8.096;2023-06-26T07:01:11;6.57;;;4.90;;
15982;SDS011;14442;50.196;8.096;2023-06-26T07:03:38;8.17;;;4.83;;
15982;SDS011;14442;50.196;8.096;2023-06-26T07:06:05;8.37;;;5.43;;
15982;SDS011;14442;50.196;8.096;2023-06-26T07:08:33;7.33;;;4.87;;
15982;SDS011;14442;50.196;8.096;2023-06-26T07:11:00;7.77;;;5.13;;
15982;SDS011;14442;50.196;8.096;2023-06-26T07:13:28;9.97;;;5.47;;
15982;SDS011;14442;50.196;8.096;2023-06-26T07:15:54;6.50;;;4.83;;
15982;SDS011;14442;50.196;8.096;2023-06-26T07:18:21;11.27;;;4.63;;
15982;SDS011;14442;50.196;8.096;2023-06-26T07:20:48;7.10;;;4.73;;
15982;SDS011;14442;50.196;8.096;2023-06-26T07:23:15;8.03;;;4.40;;
15982;SDS011;14442;50.196;8.096;2023-06-26T07:25:43;10.60;;;4.70;;
15982;SDS011;14442;50.196;8.096;2023-06-26T07:28:10;12.50;;;4.77;;
15982;SDS011;14442;50.196;8.096;2023-06-26T07:30:37;13.87;;;4.53;;
15982;SDS011;14442;50.196;8.096;2023-06-26T07:33:03;9.43;;;4.73;;
15982;SDS011;14442;50.196;8.096;2023-06-26T07:35:30;13.47;;;4.13;;
15982;SDS011;14442;50.196;8.096;2023-06-26T07:37:57;17.63;;;4.27;;
15982;SDS011;14442;50.196;8.096;2023-06-26T07:40:24;10.67;;;4.17;;
15982;SDS011;14442;50.196;8.096;2023-06-26T07:42:52;13.73;;;5.00;;
15982;SDS011;14442;50.196;8.096;2023-06-26T07:45:19;13.07;;;4.40;;
15982;SDS011;14442;50.196;8.096;2023-06-26T07:47:46;7.63;;;4.40;;
15982;SDS011;14442;50.196;8.096;2023-06-26T07:50:13;7.63;;;4.53;;
15982;SDS011;14442;50.196;8.096;2023-06-26T07:52:44;8.10;;;3.97;;
15982;SDS011;14442;50.196;8.096;2023-06-26T07:55:11;8.93;;;4.20;;
15982;SDS011;14442;50.196;8.096;2023-06-26T07:57:38;10.80;;;4.00;;
15982;SDS011;14442;50.196;8.096;2023-06-26T08:00:06;6.03;;;4.03;;
15982;SDS011;14442;50.196;8.096;2023-06-26T08:02:34;5.77;;;3.77;;
15982;SDS011;14442;50.196;8.096;2023-06-26T08:05:01;7.70;;;3.70;;
15982;SDS011;14442;50.196;8.096;2023-06-26T08:07:27;6.33;;;3.53;;
15982;SDS011;14442;50.196;8.096;2023-06-26T08:09:54;5.57;;;3.67;;
15982;SDS011;14442;50.196;8.096;2023-06-26T08:12:21;5.27;;;3.80;;
15982;SDS011;14442;50.196;8.096;2023-06-26T08:14:47;6.03;;;3.80;;
15982;SDS011;14442;50.196;8.096;2023-06-26T08:17:16;6.70;;;3.93;;
15982;SDS011;14442;50.196;8.096;2023-06-26T08:19:42;5.60;;;3.57;;
15982;SDS011;14442;50.196;8.096;2023-06-26T08:22:09;7.53;;;4.13;;
15982;SDS011;14442;50.196;8.096;2023-06-26T08:24:36;4.23;;;3.30;;
15982;SDS011;14442;50.196;8.096;2023-06-26T08:27:03;8.37;;;4.30;;
15982;SDS011;14442;50.196;8.096;2023-06-26T08:29:30;12.47;;;3.83;;
15982;SDS011;14442;50.196;8.096;2023-06-26T08:31:57;8.07;;;3.90;;
15982;SDS011;14442;50.196;8.096;2023-06-26T08:34:25;12.03;;;4.30;;
15982;SDS011;14442;50.196;8.096;2023-06-26T08:36:52;6.53;;;3.67;;
15982;SDS011;14442;50.196;8.096;2023-06-26T08:39:19;8.73;;;4.10;;
15982;SDS011;14442;50.196;8.096;2023-06-26T08:41:45;5.20;;;3.67;;
15982;SDS011;14442;50.196;8.096;2023-06-26T08:44:12;6.87;;;4.13;;
15982;SDS011;14442;50.196;8.096;2023-06-26T08:46:39;8.17;;;3.83;;
15982;SDS011;14442;50.196;8.096;2023-06-26T08:49:08;16.43;;;4.03;;
15982;SDS011;14442;50.196;8.096;2023-06-26T08:51:43;12.07;;;4.17;;
15982;SDS011;14442;50.196;8.096;2023-06-26T08:54:16;5.97;;;4.00;;
15982;SDS011;14442;50.196;8.096;2023-06-26T08:56:48;10.03;;;3.97;;
15982;SDS011;14442;50.196;8.096;2023-06-26T08:59:15;13.37;;;4.03;;
15982;SDS011;14442;50.196;8.096;2023-06-26T09:01:42;8.47;;;3.30;;
15982;SDS011;14442;50.196;8.096;2023-06-26T09:04:09;4.63;;;3.60;;
15982;SDS011;14442;50.196;8.096;2023-06-26T09:06:36;4.00;;;3.00;;
15982;SDS011;14442;50.196;8.096;2023-06-26T09:09:05;6.97;;;3.43;;
15982;SDS011;14442;50.196;8.096;2023-06-26T09:11:32;4.13;;;2.83;;
15982;SDS011;14442;50.196;8.096;2023-06-26T09:13:59;4.93;;;3.57;;
15982;SDS011;14442;50.196;8.096;2023-06-26T09:16:30;7.27;;;3.40;;
15982;SDS011;14442;50.196;8.096;2023-06-26T09:18:56;5.87;;;3.00;;
15982;SDS011;14442;50.196;8.096;2023-06-26T09:21:23;6.60;;;3.23;;
15982;SDS011;14442;50.196;8.096;2023-06-26T09:23:52;4.53;;;3.10;;
15982;SDS011;14442;50.196;8.096;2023-06-26T09:26:22;5.20;;;2.90;;
15982;SDS011;14442;50.196;8.096;2023-06-26T09:28:48;7.20;;;3.10;;
15982;SDS011;14442;50.196;8.096;2023-06-26T09:31:16;4.40;;;3.00;;
15982;SDS011;14442;50.196;8.096;2023-06-26T09:33:46;5.53;;;2.80;;
15982;SDS011;14442;50.196;8.096;2023-06-26T09:36:18;6.07;;;3.00;;
15982;SDS011;14442;50.196;8.096;2023-06-26T09:38:46;3.13;;;2.83;;
15982;SDS011;14442;50.196;8.096;2023-06-26T09:41:15;5.33;;;2.70;;
15982;SDS011;14442;50.196;8.096;2023-06-26T09:43:46;3.73;;;2.77;;
15982;SDS011;14442;50.196;8.096;2023-06-26T09:46:15;3.10;;;2.90;;
15982;SDS011;14442;50.196;8.096;2023-06-26T09:48:42;3.73;;;3.00;;
15982;SDS011;14442;50.196;8.096;2023-06-26T09:51:09;3.90;;;3.17;;
15982;SDS011;14442;50.196;8.096;2023-06-26T09:53:36;4.27;;;2.90;;
15982;SDS011;14442;50.196;8.096;2023-06-26T09:56:04;3.27;;;2.90;;
15982;SDS011;14442;50.196;8.096;2023-06-26T09:58:32;3.07;;;2.50;;
15982;SDS011;14442;50.196;8.096;2023-06-26T10:01:01;2.93;;;2.40;;
15982;SDS011;14442;50.196;8.096;2023-06-26T10:03:28;4.60;;;2.80;;
15982;SDS011;14442;50.196;8.096;2023-06-26T10:05:56;3.67;;;2.27;;
15982;SDS011;14442;50.196;8.096;2023-06-26T10:08:24;3.33;;;3.00;;
15982;SDS011;14442;50.196;8.096;2023-06-26T10:10:51;3.50;;;2.70;;
15982;SDS011;14442;50.196;8.096;2023-06-26T10:13:20;2.37;;;2.17;;
15982;SDS011;14442;50.196;8.096;2023-06-26T10:15:51;3.83;;;2.70;;
15982;SDS011;14442;50.196;8.096;2023-06-26T10:18:19;4.97;;;3.37;;
15982;SDS011;14442;50.196;8.096;2023-06-26T10:20:50;3.03;;;2.73;;
15982;SDS011;14442;50.196;8.096;2023-06-26T10:23:21;4.53;;;2.70;;
15982;SDS011;14442;50.196;8.096;2023-06-26T10:25:50;4.80;;;2.67;;
15982;SDS011;14442;50.196;8.096;2023-06-26T10:28:18;4.93;;;2.87;;
15982;SDS011;14442;50.196;8.096;2023-06-26T10:30:48;5.40;;;2.73;;
15982;SDS011;14442;50.196;8.096;2023-06-26T10:33:17;7.50;;;3.07;;
15982;SDS011;14442;50.196;8.096;2023-06-26T10:35:46;7.90;;;3.30;;
15982;SDS011;14442;50.196;8.096;2023-06-26T10:38:13;6.83;;;2.93;;
15982;SDS011;14442;50.196;8.096;2023-06-26T10:40:41;5.77;;;3.00;;
15982;SDS011;14442;50.196;8.096;2023-06-26T10:43:09;5.83;;;3.07;;
15982;SDS011;14442;50.196;8.096;2023-06-26T10:45:43;4.13;;;2.80;;
15982;SDS011;14442;50.196;8.096;2023-06-26T10:48:12;3.30;;;2.93;;
15982;SDS011;14442;50.196;8.096;2023-06-26T10:50:41;5.53;;;2.57;;
15982;SDS011;14442;50.196;8.096;2023-06-26T10:53:12;5.10;;;2.53;;
15982;SDS011;14442;50.196;8.096;2023-06-26T10:55:50;5.87;;;2.77;;
15982;SDS011;14442;50.196;8.096;2023-06-26T10:58:32;5.83;;;3.10;;
15982;SDS011;14442;50.196;8.096;2023-06-26T11:01:17;8.67;;;2.80;;
15982;SDS011;14442;50.196;8.096;2023-06-26T11:03:45;6.67;;;2.53;;
15982;SDS011;14442;50.196;8.096;2023-06-26T11:06:17;5.07;;;2.70;;
15982;SDS011;14442;50.196;8.096;2023-06-26T11:08:45;4.07;;;2.40;;
15982;SDS011;14442;50.196;8.096;2023-06-26T11:11:13;3.63;;;2.80;;
15982;SDS011;14442;50.196;8.096;2023-06-26T11:13:40;4.77;;;2.80;;
15982;SDS011;14442;50.196;8.096;2023-06-26T11:16:07;4.17;;;2.57;;
15982;SDS011;14442;50.196;8.096;2023-06-26T11:18:34;4.83;;;2.73;;
15982;SDS011;14442;50.196;8.096;2023-06-26T11:21:05;3.90;;;2.50;;
15982;SDS011;14442;50.196;8.096;2023-06-26T11:23:34;4.63;;;2.80;;
15982;SDS011;14442;50.196;8.096;2023-06-26T11:26:14;5.20;;;2.37;;
15982;SDS011;14442;50.196;8.096;2023-06-26T11:28:48;7.10;;;2.80;;
15982;SDS011;14442;50.196;8.096;2023-06-26T11:31:24;9.13;;;3.37;;
15982;SDS011;14442;50.196;8.096;2023-06-26T11:33:52;8.43;;;2.80;;
15982;SDS011;14442;50.196;8.096;2023-06-26T11:36:19;4.43;;;2.50;;
15982;SDS011;14442;50.196;8.096;2023-06-26T11:38:53;6.30;;;2.73;;
15982;SDS011;14442;50.196;8.096;2023-06-26T11:41:21;7.30;;;2.90;;
15982;SDS011;14442;50.196;8.096;2023-06-26T11:43:47;12.27;;;2.97;;
15982;SDS011;14442;50.196;8.096;2023-06-26T11:46:16;8.63;;;2.70;;
15982;SDS011;14442;50.196;8.096;2023-06-26T11:48:43;11.33;;;2.57;;
15982;SDS011;14442;50.196;8.096;2023-06-26T11:51:12;14.83;;;3.83;;
15982;SDS011;14442;50.196;8.096;2023-06-26T11:53:39;24.23;;;3.80;;
15982;SDS011;14442;50.196;8.096;2023-06-26T11:56:09;13.57;;;3.93;;
15982;SDS011;14442;50.196;8.096;2023-06-26T11:58:36;17.30;;;4.03;;
15982;SDS011;14442;50.196;8.096;2023-06-26T12:01:03;24.83;;;4.47;;
15982;SDS011;14442;50.196;8.096;2023-06-26T12:03:31;21.13;;;4.20;;
15982;SDS011;14442;50.196;8.096;2023-06-26T12:05:58;15.87;;;4.50;;
15982;SDS011;14442;50.196;8.096;2023-06-26T12:08:28;11.17;;;3.30;;
15982;SDS011;14442;50.196;8.096;2023-06-26T12:10:55;16.83;;;3.20;;
15982;SDS011;14442;50.196;8.096;2023-06-26T12:13:23;11.37;;;2.97;;
15982;SDS011;14442;50.196;8.096;2023-06-26T12:15:51;13.70;;;3.23;;
15982;SDS011;14442;50.196;8.096;2023-06-26T12:18:19;17.10;;;3.40;;
15982;SDS011;14442;50.196;8.096;2023-06-26T12:20:49;9.27;;;2.47;;
15982;SDS011;14442;50.196;8.096;2023-06-26T12:23:16;12.63;;;2.83;;
15982;SDS011;14442;50.196;8.096;2023-06-26T12:25:43;18.23;;;3.90;;
15982;SDS011;14442;50.196;8.096;2023-06-26T12:28:17;8.87;;;3.10;;
15982;SDS011;14442;50.196;8.096;2023-06-26T12:31:09;10.83;;;2.90;;
15982;SDS011;14442;50.196;8.096;2023-06-26T12:33:42;10.03;;;2.70;;
15982;SDS011;14442;50.196;8.096;2023-06-26T12:36:10;8.77;;;2.60;;
15982;SDS011;14442;50.196;8.096;2023-06-26T12:38:38;8.00;;;2.57;;
15982;SDS011;14442;50.196;8.096;2023-06-26T12:41:04;10.37;;;2.50;;
15982;SDS011;14442;50.196;8.096;2023-06-26T12:43:31;7.13;;;2.40;;
15982;SDS011;14442;50.196;8.096;2023-06-26T12:46:05;11.17;;;2.80;;
15982;SDS011;14442;50.196;8.096;2023-06-26T12:48:38;6.33;;;2.30;;
15982;SDS011;14442;50.196;8.096;2023-06-26T12:51:12;5.33;;;2.27;;
15982;SDS011;14442;50.196;8.096;2023-06-26T12:53:39;3.73;;;2.00;;
15982;SDS011;14442;50.196;8.096;2023-06-26T12:56:07;4.27;;;2.20;;
15982;SDS011;14442;50.196;8.096;2023-06-26T12:58:34;4.03;;;2.00;;
15982;SDS011;14442;50.196;8.096;2023-06-26T13:01:02;5.83;;;1.90;;
15982;SDS011;14442;50.196;8.096;2023-06-26T13:03:34;3.80;;;2.03;;
15982;SDS011;14442;50.196;8.096;2023-06-26T13:06:00;7.23;;;2.27;;
15982;SDS011;14442;50.196;8.096;2023-06-26T13:08:27;3.97;;;1.90;;
15982;SDS011;14442;50.196;8.096;2023-06-26T13:10:54;5.33;;;1.83;;
15982;SDS011;14442;50.196;8.096;2023-06-26T13:13:21;6.17;;;2.10;;
15982;SDS011;14442;50.196;8.096;2023-06-26T13:15:48;6.27;;;1.97;;
15982;SDS011;14442;50.196;8.096;2023-06-26T13:18:15;6.30;;;1.60;;
15982;SDS011;14442;50.196;8.096;2023-06-26T13:20:43;3.60;;;2.07;;
15982;SDS011;14442;50.196;8.096;2023-06-26T13:23:10;5.20;;;2.00;;
15982;SDS011;14442;50.196;8.096;2023-06-26T13:25:36;4.70;;;1.60;;
15982;SDS011;14442;50.196;8.096;2023-06-26T13:28:03;3.47;;;1.70;;
15982;SDS011;14442;50.196;8.096;2023-06-26T13:30:30;2.47;;;1.80;;
15982;SDS011;14442;50.196;8.096;2023-06-26T13:32:57;2.57;;;1.40;;
15982;SDS011;14442;50.196;8.096;2023-06-26T13:35:23;3.50;;;1.90;;
15982;SDS011;14442;50.196;8.096;2023-06-26T13:37:51;3.63;;;2.00;;
15982;SDS011;14442;50.196;8.096;2023-06-26T13:40:19;5.47;;;1.43;;
15982;SDS011;14442;50.196;8.096;2023-06-26T13:42:46;2.13;;;1.43;;
15982;SDS011;14442;50.196;8.096;2023-06-26T13:45:13;3.50;;;1.73;;
15982;SDS011;14442;50.196;8.096;2023-06-26T13:47:40;1.47;;;1.20;;
15982;SDS011;14442;50.196;8.096;2023-06-26T13:50:07;5.43;;;1.63;;
15982;SDS011;14442;50.196;8.096;2023-06-26T13:52:35;4.77;;;1.90;;
15982;SDS011;14442;50.196;8.096;2023-06-26T13:55:03;2.47;;;1.53;;
15982;SDS011;14442;50.196;8.096;2023-06-26T13:57:31;3.20;;;1.63;;
15982;SDS011;14442;50.196;8.096;2023-06-26T13:59:58;3.93;;;1.60;;
15982;SDS011;14442;50.196;8.096;2023-06-26T14:02:25;3.73;;;1.80;;
15982;SDS011;14442;50.196;8.096;2023-06-26T14:04:52;10.10;;;1.60;;
15982;SDS011;14442;50.196;8.096;2023-06-26T14:07:19;7.67;;;2.10;;
15982;SDS011;14442;50.196;8.096;2023-06-26T14:09:45;7.63;;;2.13;;
15982;SDS011;14442;50.196;8.096;2023-06-26T14:12:13;7.60;;;1.80;;
15982;SDS011;14442;50.196;8.096;2023-06-26T14:14:40;3.97;;;1.57;;
15982;SDS011;14442;50.196;8.096;2023-06-26T14:17:07;6.17;;;2.10;;
15982;SDS011;14442;50.196;8.096;2023-06-26T14:19:35;6.57;;;1.73;;
15982;SDS011;14442;50.196;8.096;2023-06-26T14:22:02;8.03;;;1.40;;
15982;SDS011;14442;50.196;8.096;2023-06-26T14:24:29;4.03;;;1.53;;
15982;SDS011;14442;50.196;8.096;2023-06-26T14:26:56;3.87;;;1.77;;
15982;SDS011;14442;50.196;8.096;2023-06-26T14:29:24;3.77;;;1.40;;
15982;SDS011;14442;50.196;8.096;2023-06-26T14:31:51;5.90;;;1.63;;
15982;SDS011;14442;50.196;8.096;2023-06-26T14:34:17;3.77;;;1.60;;
15982;SDS011;14442;50.196;8.096;2023-06-26T14:36:44;4.63;;;1.67;;
15982;SDS011;14442;50.196;8.096;2023-06-26T14:39:11;4.63;;;1.37;;
15982;SDS011;14442;50.196;8.096;2023-06-26T14:41:38;2.90;;;1.30;;
15982;SDS011;14442;50.196;8.096;2023-06-26T14:44:05;2.47;;;1.13;;
15982;SDS011;14442;50.196;8.096;2023-06-26T14:46:36;2.23;;;1.10;;
15982;SDS011;14442;50.196;8.096;2023-06-26T14:49:03;2.40;;;1.20;;